createdAt,value
2017-12-04T00:00:27.806Z,4.50
2017-12-04T00:02:55.929Z,3.22
2017-12-04T00:05:24.070Z,2.65
2017-12-04T00:07:52.193Z,3.90
2017-12-04T00:10:20.340Z,3.10
2017-12-04T00:12:48.467Z,3.05
2017-12-04T00:15:16.614Z,3.28
2017-12-04T00:17:44.737Z,4.25
2017-12-04T00:20:12.894Z,3.80
2017-12-04T00:22:41.781Z,4.20
2017-12-04T00:25:09.942Z,2.53
2017-12-04T00:27:38.060Z,2.90
2017-12-04T00:30:06.213Z,6.60
2017-12-04T00:32:34.332Z,4.00
2017-12-04T00:35:02.457Z,3.20
2017-12-04T00:37:30.604Z,3.20
2017-12-04T00:39:58.725Z,3.85
2017-12-04T00:42:26.886Z,2.78
2017-12-04T00:44:55.005Z,2.00
2017-12-04T00:47:23.149Z,1.90
2017-12-04T00:49:51.273Z,2.03
2017-12-04T00:52:19.450Z,1.50
2017-12-04T00:54:47.573Z,1.52
2017-12-04T00:57:15.742Z,2.20
2017-12-04T00:59:43.855Z,2.78
2017-12-04T01:02:12.001Z,1.52
2017-12-04T01:04:40.123Z,1.33
2017-12-04T01:07:08.278Z,1.45
2017-12-04T01:09:36.397Z,1.55
2017-12-04T01:12:04.546Z,2.20
2017-12-04T01:14:33.432Z,1.87
2017-12-04T01:17:01.594Z,1.35
2017-12-04T01:19:29.720Z,1.42
2017-12-04T01:21:57.872Z,1.58
2017-12-04T01:24:25.989Z,1.23
2017-12-04T01:26:54.137Z,1.45
2017-12-04T01:29:22.256Z,1.60
2017-12-04T01:31:50.409Z,1.10
2017-12-04T01:34:18.538Z,1.45
2017-12-04T01:36:46.695Z,0.90
2017-12-04T01:39:14.808Z,0.90
2017-12-04T01:41:42.962Z,0.80
2017-12-04T01:44:11.081Z,0.90
2017-12-04T01:46:39.229Z,0.90
2017-12-04T01:49:07.352Z,0.80
2017-12-04T01:51:35.505Z,1.20
2017-12-04T01:54:03.641Z,1.25
2017-12-04T01:56:31.748Z,0.98
2017-12-04T01:58:59.914Z,0.75
2017-12-04T02:01:28.040Z,1.10
2017-12-04T02:03:56.185Z,1.00
2017-12-04T02:06:25.070Z,2.25
2017-12-04T02:08:53.213Z,0.98
2017-12-04T02:11:21.330Z,2.67
2017-12-04T02:13:50.248Z,1.37
2017-12-04T02:16:18.370Z,1.20
2017-12-04T02:18:46.523Z,1.40
2017-12-04T02:21:14.633Z,2.37
2017-12-04T02:23:42.788Z,1.50
2017-12-04T02:26:10.906Z,1.80
2017-12-04T02:28:39.066Z,2.47
2017-12-04T02:31:07.953Z,2.00
2017-12-04T02:33:36.093Z,1.52
2017-12-04T02:36:04.231Z,1.80
2017-12-04T02:38:32.375Z,2.00
2017-12-04T02:41:00.499Z,1.95
2017-12-04T02:43:28.645Z,3.15
2017-12-04T02:45:56.766Z,2.87
2017-12-04T02:48:24.909Z,2.90
2017-12-04T02:50:53.030Z,2.47
2017-12-04T02:53:21.187Z,2.50
2017-12-04T02:55:49.335Z,2.37
2017-12-04T02:58:17.469Z,2.62
2017-12-04T03:00:45.617Z,3.10
2017-12-04T03:03:13.734Z,3.17
2017-12-04T03:05:41.881Z,3.60
2017-12-04T03:08:10.001Z,3.65
2017-12-04T03:10:38.148Z,2.85
2017-12-04T03:13:06.274Z,3.05
2017-12-04T03:15:34.429Z,3.33
2017-12-04T03:18:02.549Z,3.30
2017-12-04T03:20:30.702Z,4.10
2017-12-04T03:22:58.829Z,2.85
2017-12-04T03:25:27.007Z,3.87
2017-12-04T03:27:55.126Z,3.10
2017-12-04T03:30:23.287Z,4.00
2017-12-04T03:32:51.409Z,2.90
2017-12-04T03:35:19.562Z,3.47
2017-12-04T03:37:47.699Z,2.50
2017-12-04T03:40:15.845Z,2.30
2017-12-04T03:42:43.973Z,3.55
2017-12-04T03:45:12.881Z,2.50
2017-12-04T03:47:41.006Z,3.55
2017-12-04T03:50:09.148Z,3.30
2017-12-04T03:52:37.277Z,4.75
2017-12-04T03:55:05.435Z,3.10
2017-12-04T03:57:33.549Z,2.55
2017-12-04T04:00:01.714Z,4.07
2017-12-04T04:02:29.832Z,3.62
2017-12-04T04:04:57.950Z,2.72
2017-12-04T04:07:26.102Z,4.57
2017-12-04T04:09:54.226Z,3.25
2017-12-04T04:12:22.372Z,3.53
2017-12-04T04:14:51.257Z,2.20
2017-12-04T04:17:19.405Z,2.75
2017-12-04T04:19:47.517Z,4.35
2017-12-04T04:22:15.663Z,3.05
2017-12-04T04:24:43.806Z,2.55
2017-12-04T04:27:11.952Z,2.90
2017-12-04T04:29:40.074Z,3.30
2017-12-04T04:32:08.221Z,3.35
2017-12-04T04:34:36.347Z,3.58
2017-12-04T04:37:04.498Z,3.17
2017-12-04T04:39:32.617Z,3.87
2017-12-04T04:42:00.769Z,2.47
2017-12-04T04:44:29.657Z,2.45
2017-12-04T04:46:57.810Z,2.90
2017-12-04T04:49:25.930Z,2.62
2017-12-04T04:51:54.076Z,2.70
2017-12-04T04:54:22.200Z,2.65
2017-12-04T04:56:50.348Z,2.80
2017-12-04T04:59:18.485Z,2.80
2017-12-04T05:01:47.398Z,3.75
2017-12-04T05:04:15.520Z,3.00
2017-12-04T05:06:43.669Z,4.18
2017-12-04T05:09:11.809Z,4.05
2017-12-04T05:11:39.957Z,3.22
2017-12-04T05:14:08.082Z,2.78
2017-12-04T05:16:36.249Z,3.20
2017-12-04T05:19:04.364Z,3.08
2017-12-04T05:21:32.492Z,2.85
2017-12-04T05:24:00.646Z,2.15
2017-12-04T05:26:28.772Z,3.40
2017-12-04T05:28:56.933Z,2.65
2017-12-04T05:31:25.049Z,2.53
2017-12-04T05:33:53.207Z,2.37
2017-12-04T05:36:21.320Z,2.30
2017-12-04T05:38:49.469Z,2.15
2017-12-04T05:41:17.598Z,3.08
2017-12-04T05:43:45.745Z,1.92
2017-12-04T05:46:13.871Z,2.65
2017-12-04T05:48:42.050Z,2.92
2017-12-04T05:51:10.214Z,2.78
2017-12-04T05:53:38.350Z,3.58
2017-12-04T05:56:06.470Z,3.95
2017-12-04T05:58:34.618Z,2.17
2017-12-04T06:01:02.738Z,1.58
2017-12-04T06:03:31.653Z,2.92
2017-12-04T06:05:59.773Z,3.70
2017-12-04T06:08:27.929Z,2.62
2017-12-04T06:10:56.059Z,3.05
2017-12-04T06:13:24.223Z,3.92
2017-12-04T06:15:52.346Z,3.17
2017-12-04T06:18:20.497Z,3.62
2017-12-04T06:20:48.617Z,2.45
2017-12-04T06:23:16.764Z,2.70
2017-12-04T06:25:44.906Z,2.62
2017-12-04T06:28:13.069Z,2.05
2017-12-04T06:30:41.960Z,3.28
2017-12-04T06:33:10.089Z,2.55
2017-12-04T06:35:38.239Z,1.95
2017-12-04T06:38:06.362Z,2.50
2017-12-04T06:40:34.509Z,2.53
2017-12-04T06:43:02.630Z,2.95
2017-12-04T06:45:30.773Z,1.75
2017-12-04T06:47:58.899Z,2.20
2017-12-04T06:50:27.041Z,3.47
2017-12-04T06:52:55.168Z,2.33
2017-12-04T06:55:23.312Z,3.03
2017-12-04T06:57:51.436Z,2.10
2017-12-04T07:00:19.585Z,1.75
2017-12-04T07:02:47.712Z,2.95
2017-12-04T07:05:15.852Z,1.90
2017-12-04T07:07:43.969Z,2.62
2017-12-04T07:10:12.114Z,2.03
2017-12-04T07:12:41.004Z,3.85
2017-12-04T07:15:09.204Z,2.40
2017-12-04T07:17:37.289Z,1.85
2017-12-04T07:20:05.438Z,1.23
2017-12-04T07:22:33.553Z,1.75
2017-12-04T07:25:01.707Z,1.95
2017-12-04T07:27:29.836Z,2.45
2017-12-04T07:29:57.980Z,1.92
2017-12-04T07:32:26.109Z,2.12
2017-12-04T07:34:54.261Z,2.10
2017-12-04T07:37:22.377Z,1.85
2017-12-04T07:39:50.496Z,1.60
2017-12-04T07:42:18.646Z,2.25
2017-12-04T07:44:46.761Z,1.62
2017-12-04T07:47:14.913Z,2.20
2017-12-04T07:49:43.029Z,1.10
2017-12-04T07:52:11.175Z,1.25
2017-12-04T07:54:39.318Z,1.05
2017-12-04T07:57:07.465Z,1.48
2017-12-04T07:59:35.585Z,1.30
2017-12-04T08:02:03.734Z,1.30
2017-12-04T08:04:31.877Z,1.35
2017-12-04T08:07:00.024Z,1.85
2017-12-04T08:09:28.919Z,1.70
2017-12-04T08:11:57.829Z,1.50
2017-12-04T08:14:26.003Z,2.28
2017-12-04T08:16:54.878Z,2.00
2017-12-04T08:19:23.001Z,2.03
2017-12-04T08:21:51.150Z,1.98
2017-12-04T08:24:19.265Z,1.48
2017-12-04T08:26:47.409Z,1.45
2017-12-04T08:29:15.531Z,0.70
2017-12-04T08:31:43.677Z,1.37
2017-12-04T08:34:11.806Z,1.30
2017-12-04T08:36:39.954Z,1.12
2017-12-04T08:39:08.081Z,1.52
2017-12-04T08:41:36.438Z,1.45
2017-12-04T08:44:04.562Z,1.62
2017-12-04T08:46:32.709Z,1.12
2017-12-04T08:49:00.822Z,1.50
2017-12-04T08:51:30.461Z,2.42
2017-12-04T08:53:58.576Z,1.30
2017-12-04T08:56:26.761Z,1.00
2017-12-04T08:58:54.886Z,1.50
2017-12-04T09:01:23.009Z,1.40
2017-12-04T09:03:51.918Z,1.60
2017-12-04T09:06:20.045Z,1.12
2017-12-04T09:08:48.183Z,1.15
2017-12-04T09:11:16.310Z,1.85
2017-12-04T09:13:44.446Z,2.00
2017-12-04T09:16:12.573Z,1.83
2017-12-04T09:18:40.728Z,1.50
2017-12-04T09:21:08.848Z,1.60
2017-12-04T09:23:36.988Z,1.30
2017-12-04T09:26:05.101Z,2.00
2017-12-04T09:28:33.249Z,1.30
2017-12-04T09:31:01.370Z,1.65
2017-12-04T09:33:29.518Z,2.08
2017-12-04T09:35:57.636Z,2.40
2017-12-04T09:38:25.791Z,2.65
2017-12-04T09:40:53.915Z,1.67
2017-12-04T09:43:22.057Z,1.40
2017-12-04T09:45:50.181Z,2.95
2017-12-04T09:48:18.330Z,1.55
2017-12-04T09:50:46.453Z,1.87
2017-12-04T09:53:15.361Z,1.90
2017-12-04T09:55:44.402Z,2.58
2017-12-04T09:58:12.545Z,2.15
2017-12-04T10:00:40.704Z,1.87
2017-12-04T10:03:08.851Z,1.45
2017-12-04T10:05:36.970Z,1.45
2017-12-04T10:08:05.881Z,2.15
2017-12-04T10:10:34.018Z,2.00
2017-12-04T10:13:02.185Z,2.60
2017-12-04T10:15:30.300Z,1.77
2017-12-04T10:17:58.452Z,1.98
2017-12-04T10:20:27.369Z,1.80
2017-12-04T10:22:55.490Z,2.50
2017-12-04T10:25:23.646Z,1.70
2017-12-04T10:27:51.761Z,1.62
2017-12-04T10:30:19.904Z,2.40
2017-12-04T10:32:48.570Z,1.48
2017-12-04T10:35:17.119Z,2.35
2017-12-04T10:37:45.996Z,1.62
2017-12-04T10:40:14.141Z,2.50
2017-12-04T10:42:42.269Z,1.83
2017-12-04T10:45:10.424Z,2.20
2017-12-04T10:47:38.541Z,1.75
2017-12-04T10:50:06.689Z,1.75
2017-12-04T10:52:34.811Z,1.30
2017-12-04T10:55:02.959Z,1.33
2017-12-04T10:57:31.099Z,1.12
2017-12-04T10:59:59.255Z,1.90
2017-12-04T11:02:27.378Z,2.75
2017-12-04T11:04:55.532Z,1.67
2017-12-04T11:07:23.647Z,2.17
2017-12-04T11:09:51.796Z,3.33
2017-12-04T11:12:19.948Z,1.50
2017-12-04T11:14:49.087Z,1.67
2017-12-04T11:17:17.408Z,1.80
2017-12-04T11:19:46.321Z,2.10
2017-12-04T11:22:14.438Z,2.85
2017-12-04T11:24:42.582Z,1.60
2017-12-04T11:27:10.697Z,1.20
2017-12-04T11:29:38.852Z,1.30
2017-12-04T11:32:06.968Z,1.45
2017-12-04T11:34:35.108Z,1.85
2017-12-04T11:37:03.237Z,1.50
2017-12-04T11:39:31.589Z,1.20
2017-12-04T11:42:00.470Z,2.03
2017-12-04T11:44:28.625Z,1.90
2017-12-04T11:46:56.745Z,1.70
2017-12-04T11:49:24.869Z,1.45
2017-12-04T11:51:53.012Z,1.50
2017-12-04T11:54:21.138Z,1.70
2017-12-04T11:56:49.281Z,1.40
2017-12-04T11:59:17.397Z,1.83
2017-12-04T12:01:45.553Z,2.10
2017-12-04T12:04:13.672Z,1.85
2017-12-04T12:06:41.825Z,1.95
2017-12-04T12:09:09.948Z,1.60
2017-12-04T12:11:38.131Z,1.50
2017-12-04T12:14:06.248Z,2.22
2017-12-04T12:16:34.505Z,2.60
2017-12-04T12:19:03.500Z,1.62
2017-12-04T12:21:32.409Z,1.90
2017-12-04T12:24:00.525Z,1.55
2017-12-04T12:26:28.673Z,1.25
2017-12-04T12:28:57.012Z,1.77
2017-12-04T12:31:25.921Z,2.03
2017-12-04T12:33:54.037Z,1.58
2017-12-04T12:36:22.186Z,3.03
2017-12-04T12:38:50.528Z,2.00
2017-12-04T12:41:19.432Z,1.50
2017-12-04T12:43:47.557Z,1.52
2017-12-04T12:46:15.722Z,1.83
2017-12-04T12:48:43.866Z,1.50
2017-12-04T12:51:12.013Z,1.60
2017-12-04T12:53:40.141Z,2.10
2017-12-04T12:56:08.288Z,1.48
2017-12-04T12:58:36.406Z,1.48
2017-12-04T13:01:04.561Z,1.95
2017-12-04T13:03:32.681Z,1.27
2017-12-04T13:06:00.821Z,1.20
2017-12-04T13:08:28.941Z,1.35
2017-12-04T13:10:57.096Z,1.95
2017-12-04T13:13:26.678Z,1.55
2017-12-04T13:15:54.824Z,2.20
2017-12-04T13:18:22.974Z,1.77
2017-12-04T13:20:51.097Z,1.17
2017-12-04T13:23:19.252Z,1.15
2017-12-04T13:25:47.392Z,1.30
2017-12-04T13:28:19.080Z,1.35
2017-12-04T13:30:47.201Z,1.10
2017-12-04T13:33:27.117Z,1.62
2017-12-04T13:36:06.961Z,2.25
2017-12-04T13:38:35.131Z,1.10
2017-12-04T13:41:03.281Z,1.05
2017-12-04T13:43:31.426Z,2.58
2017-12-04T13:45:59.560Z,1.50
2017-12-04T13:48:27.705Z,2.33
2017-12-04T13:50:55.824Z,1.70
2017-12-04T13:53:23.973Z,1.83
2017-12-04T13:55:52.110Z,1.83
2017-12-04T13:58:20.258Z,2.35
2017-12-04T14:00:48.386Z,1.35
2017-12-04T14:03:16.543Z,1.23
2017-12-04T14:05:44.660Z,1.20
2017-12-04T14:08:13.581Z,1.50
2017-12-04T14:10:41.745Z,1.90
2017-12-04T14:13:10.120Z,1.30
2017-12-04T14:15:39.112Z,1.45
2017-12-04T14:18:08.533Z,1.40
2017-12-04T14:20:36.652Z,1.90
2017-12-04T14:23:04.793Z,2.28
2017-12-04T14:25:33.164Z,1.33
2017-12-04T14:28:01.311Z,1.67
2017-12-04T14:30:30.198Z,1.20
2017-12-04T14:32:58.316Z,1.42
2017-12-04T14:35:26.461Z,2.55
2017-12-04T14:37:54.624Z,1.55
2017-12-04T14:40:22.762Z,1.30
2017-12-04T14:42:50.884Z,1.52
2017-12-04T14:45:19.065Z,1.65
2017-12-04T14:47:47.205Z,1.98
2017-12-04T14:50:15.357Z,1.25
2017-12-04T14:52:43.473Z,1.60
2017-12-04T14:55:11.621Z,1.48
2017-12-04T14:57:40.511Z,1.73
2017-12-04T15:00:08.659Z,1.15
2017-12-04T15:02:36.778Z,1.10
2017-12-04T15:05:07.264Z,1.83
2017-12-04T15:07:35.387Z,1.37
2017-12-04T15:10:03.724Z,1.60
2017-12-04T15:12:32.640Z,1.98
2017-12-04T15:15:00.794Z,4.47
2017-12-04T15:17:28.917Z,1.87
2017-12-04T15:19:57.261Z,1.33
2017-12-04T15:22:26.144Z,1.77
2017-12-04T15:24:54.321Z,1.80
2017-12-04T15:27:23.201Z,1.48
2017-12-04T15:29:51.358Z,3.05
2017-12-04T15:32:19.479Z,1.80
2017-12-04T15:34:47.624Z,1.58
2017-12-04T15:37:15.744Z,1.45
2017-12-04T15:39:43.889Z,1.60
2017-12-04T15:42:12.022Z,2.50
2017-12-04T15:44:40.173Z,1.80
2017-12-04T15:47:08.461Z,2.00
2017-12-04T15:49:36.610Z,2.05
2017-12-04T15:52:04.741Z,2.12
2017-12-04T15:54:32.913Z,2.05
2017-12-04T15:57:01.034Z,2.50
2017-12-04T15:59:29.184Z,2.35
2017-12-04T16:01:57.332Z,2.28
2017-12-04T16:04:25.469Z,2.55
2017-12-04T16:06:53.617Z,3.50
2017-12-04T16:09:21.741Z,5.10
2017-12-04T16:11:49.897Z,2.42
2017-12-04T16:14:18.207Z,2.67
2017-12-04T16:16:47.126Z,3.05
2017-12-04T16:19:15.240Z,2.75
2017-12-04T16:21:43.397Z,2.25
2017-12-04T16:24:11.583Z,2.05
2017-12-04T16:26:39.725Z,3.12
2017-12-04T16:29:07.842Z,2.30
2017-12-04T16:31:35.998Z,2.62
2017-12-04T16:34:04.332Z,4.00
2017-12-04T16:36:33.241Z,2.17
2017-12-04T16:39:01.361Z,2.03
2017-12-04T16:41:29.536Z,2.45
2017-12-04T16:43:57.663Z,2.97
2017-12-04T16:46:25.829Z,2.15
2017-12-04T16:48:53.951Z,2.35
2017-12-04T16:51:22.101Z,2.90
2017-12-04T16:53:50.230Z,3.33
2017-12-04T16:56:18.388Z,2.30
2017-12-04T16:58:47.276Z,2.25
2017-12-04T17:01:15.398Z,5.40
2017-12-04T17:03:43.823Z,2.22
2017-12-04T17:06:11.946Z,2.80
2017-12-04T17:08:40.098Z,2.25
2017-12-04T17:11:08.228Z,2.95
2017-12-04T17:13:37.193Z,2.90
2017-12-04T17:16:05.320Z,2.08
2017-12-04T17:18:33.473Z,7.78
2017-12-04T17:21:01.761Z,5.75
2017-12-04T17:23:30.252Z,4.97
2017-12-04T17:25:59.810Z,8.85
2017-12-04T17:28:28.517Z,5.85
2017-12-04T17:30:56.794Z,2.45
2017-12-04T17:33:25.159Z,3.12
2017-12-04T17:35:53.298Z,2.60
2017-12-04T17:38:21.456Z,2.70
2017-12-04T17:40:50.343Z,7.25
2017-12-04T17:43:19.093Z,4.28
2017-12-04T17:45:47.224Z,2.50
2017-12-04T17:48:15.462Z,2.37
2017-12-04T17:53:18.287Z,2.83
2017-12-04T17:55:46.412Z,2.53
2017-12-04T17:58:14.794Z,2.15
2017-12-04T18:00:43.119Z,3.92
2017-12-04T18:03:11.460Z,2.33
2017-12-04T18:05:39.879Z,2.20
2017-12-04T18:08:08.441Z,1.95
2017-12-04T18:10:37.368Z,1.80
2017-12-04T18:13:06.091Z,1.87
2017-12-04T18:15:34.635Z,2.47
2017-12-04T18:18:03.283Z,2.28
2017-12-04T18:20:31.718Z,2.35
2017-12-04T18:23:00.223Z,3.37
2017-12-04T18:25:28.692Z,3.42
2017-12-04T18:27:57.037Z,2.67
2017-12-04T18:30:26.082Z,2.25
2017-12-04T18:32:56.032Z,2.90
2017-12-04T18:35:24.988Z,2.80
2017-12-04T18:37:53.964Z,2.67
2017-12-04T18:40:22.324Z,4.00
2017-12-04T18:42:50.466Z,2.30
2017-12-04T18:45:19.414Z,2.12
2017-12-04T18:47:47.748Z,2.90
2017-12-04T18:50:15.918Z,2.20
2017-12-04T18:52:44.428Z,3.72
2017-12-04T18:55:12.848Z,2.75
2017-12-04T18:57:41.780Z,3.15
2017-12-04T19:00:10.677Z,3.08
2017-12-04T19:02:39.505Z,2.65
2017-12-04T19:05:08.611Z,3.35
2017-12-04T19:07:38.262Z,2.78
2017-12-04T19:10:06.436Z,2.53
2017-12-04T19:12:34.973Z,2.83
2017-12-04T19:15:04.404Z,2.45
2017-12-04T19:17:32.567Z,2.33
2017-12-04T19:20:00.738Z,2.37
2017-12-04T19:22:28.875Z,3.10
2017-12-04T19:24:57.037Z,2.70
2017-12-04T19:27:25.157Z,2.33
2017-12-04T19:29:53.312Z,2.42
2017-12-04T19:32:21.499Z,3.22
2017-12-04T19:34:50.110Z,2.60
2017-12-04T19:37:19.098Z,2.78
2017-12-04T19:39:47.491Z,2.85
2017-12-04T19:42:15.885Z,2.15
2017-12-04T19:44:45.055Z,2.28
2017-12-04T19:47:13.315Z,3.50
2017-12-04T19:49:42.663Z,2.92
2017-12-04T19:52:12.875Z,2.50
2017-12-04T19:54:41.405Z,3.15
2017-12-04T19:57:10.431Z,3.53
2017-12-04T19:59:38.668Z,3.55
2017-12-04T20:02:06.799Z,3.35
2017-12-04T20:04:35.075Z,3.80
2017-12-04T20:07:03.704Z,3.00
2017-12-04T20:09:31.841Z,3.42
2017-12-04T20:12:00.632Z,3.03
2017-12-04T20:14:30.620Z,3.25
2017-12-04T20:16:59.526Z,2.85
2017-12-04T20:19:27.673Z,2.92
2017-12-04T20:21:56.811Z,2.97
2017-12-04T20:24:25.230Z,3.90
2017-12-04T20:26:54.498Z,3.20
2017-12-04T20:29:22.641Z,4.57
2017-12-04T20:31:51.016Z,2.90
2017-12-04T20:34:19.145Z,2.67
2017-12-04T20:36:47.305Z,3.03
2017-12-04T20:39:15.505Z,2.90
2017-12-04T20:41:43.672Z,4.40
2017-12-04T20:44:11.794Z,2.65
2017-12-04T20:46:39.951Z,3.65
2017-12-04T20:49:08.072Z,3.00
2017-12-04T20:51:36.373Z,3.35
2017-12-04T20:54:04.514Z,3.70
2017-12-04T20:56:32.675Z,3.70
2017-12-04T20:59:00.803Z,4.47
2017-12-04T21:01:28.959Z,3.15
2017-12-04T21:03:57.088Z,2.90
2017-12-04T21:06:25.253Z,2.97
2017-12-04T21:09:05.157Z,3.33
2017-12-04T21:11:50.995Z,3.42
2017-12-04T21:14:30.960Z,3.40
2017-12-04T21:17:10.874Z,3.05
2017-12-04T21:19:39.099Z,2.83
2017-12-04T21:22:07.330Z,3.03
2017-12-04T21:24:35.529Z,3.87
2017-12-04T21:27:03.706Z,3.62
2017-12-04T21:29:31.859Z,3.35
2017-12-04T21:32:00.017Z,5.10
2017-12-04T21:34:28.153Z,2.72
2017-12-04T21:36:56.384Z,3.47
2017-12-04T21:39:24.517Z,2.35
2017-12-04T21:41:52.680Z,2.50
2017-12-04T21:44:21.063Z,2.50
2017-12-04T21:46:49.187Z,2.62
2017-12-04T21:49:17.552Z,2.65
2017-12-04T21:51:46.545Z,2.10
2017-12-04T21:54:15.498Z,3.42
2017-12-04T21:56:43.612Z,2.85
2017-12-04T21:59:11.988Z,2.80
2017-12-04T22:01:40.888Z,2.53
2017-12-04T22:04:09.054Z,3.45
2017-12-04T22:06:37.181Z,3.10
2017-12-04T22:09:05.375Z,4.00
2017-12-04T22:11:33.494Z,2.80
2017-12-04T22:14:01.645Z,2.75
2017-12-04T22:16:30.542Z,3.37
2017-12-04T22:18:58.685Z,2.83
2017-12-04T22:21:26.810Z,3.20
2017-12-04T22:23:54.954Z,3.40
2017-12-04T22:26:23.082Z,3.50
2017-12-04T22:28:51.256Z,4.43
2017-12-04T22:31:19.377Z,4.72
2017-12-04T22:33:47.538Z,3.50
2017-12-04T22:36:16.421Z,3.28
2017-12-04T22:38:45.352Z,4.70
2017-12-04T22:41:13.470Z,3.35
2017-12-04T22:43:41.625Z,3.20
2017-12-04T22:46:09.749Z,3.65
2017-12-04T22:48:37.877Z,2.75
2017-12-04T22:51:06.025Z,3.20
2017-12-04T22:53:34.146Z,3.33
2017-12-04T22:56:02.293Z,2.30
2017-12-04T22:58:30.429Z,3.83
2017-12-04T23:00:58.573Z,4.07
2017-12-04T23:03:26.688Z,3.42
2017-12-04T23:05:54.858Z,3.85
2017-12-04T23:08:22.981Z,3.30
2017-12-04T23:10:51.133Z,2.33
2017-12-04T23:13:19.250Z,3.58
2017-12-04T23:15:47.405Z,3.28
2017-12-04T23:18:15.524Z,2.12
2017-12-04T23:20:43.668Z,2.67
2017-12-04T23:23:11.813Z,2.87
2017-12-04T23:25:39.962Z,2.85
2017-12-04T23:28:08.086Z,3.47
2017-12-04T23:30:37.002Z,3.10
2017-12-04T23:33:05.125Z,2.17
2017-12-04T23:35:33.278Z,3.00
2017-12-04T23:38:01.608Z,2.58
2017-12-04T23:40:30.512Z,2.72
2017-12-04T23:42:58.657Z,2.65
2017-12-04T23:45:27.583Z,3.25
2017-12-04T23:47:55.706Z,2.70
2017-12-04T23:50:23.857Z,3.97
2017-12-04T23:52:52.162Z,3.33
2017-12-04T23:55:20.308Z,3.90
2017-12-04T23:57:48.639Z,3.35
